Kincheloe, MI (49788)

3:14 PM EST on February 14, 2016 (GMT -0500)
NOS_NWLON | | Change Station
CLOSE
Current Station
Personal Weather Station
Location: Kincheloe, MI
Elevation: 606 ft
Nearby Weather Stations

Elev 606 ft 46.49 °N, 84.30 °W | Updated 26 minutes ago

Overcast
Overcast
13 °F
Feels Like 1 °F
N
9
Wind Variable Wind from East
Gusts 13.0 mph

Today
High -- | Low -- °F
--% Chance of Precip.
Yesterday
High -- | Low -- °F
Precip. -- in
Pressure 30.26 in
Visibility 10.0 miles
Clouds Mostly Cloudy 2700 ft
Overcast 3300 ft
Windchill 1 °F
Dew Point Not available.
Humidity Not available.
Rainfall in
Snow Depth Not available.
7:43 AM 6:01 PM
Waxing Crescent, 45% visible
METAR KCIU 141955Z AUTO 11010KT 10SM BKN027 OVC033 M09/M13 A3026 RMK AO1
Pressure 30.26 in
Visibility 10.0 miles
Clouds Mostly Cloudy 2700 ft
Overcast 3300 ft
Windchill 1 °F
Dew Point Not available.
Humidity Not available.
Rainfall in
Snow Depth Not available.
7:43 AM 6:01 PM
Waxing Crescent, 45% visible
METAR KCIU 141955Z AUTO 11010KT 10SM BKN027 OVC033 M09/M13 A3026 RMK AO1

10-Day Weather Forecast

Almanac

Astronomy

Feb. 14, 2016 Rise Set
Actual Time
Civil Twilight
Nautical Twilight
Astronomical Twilight
Moon
Length of Visible Light
Length of Day
Tomorrow will be .
, % of the Moon is Illuminated

Today's Extremes

State Highs State Lows

Community

WunderPhotos

Upload Photos

1,892,880 photos uploaded!

WunderBlog® & News

Nearby

Air Quality

  Air Quality AQ Index Pollutant
Not available.

Snow Depth

Station Depth Elevation

Earthquake Activity

City Distance Mag. Time & Date
Minimum magnitude displayed is 2.5.

Coastal Water Temperatures

Place Temperature

Stations

Nearby Weather Stations

Station Location Temp. Windchill Dew Point Humidity Wind Precip. Elev Updated Type
                   

Watches & Warnings

There are currently no watches in effect.